Date,TemperatureHighF,TemperatureAvgF,TemperatureLowF,DewpointHighF,DewpointAvgF,DewpointLowF,HumidityHigh,HumidityAvg,HumidityLow,PressureMaxIn,PressureMinIn,WindSpeedMaxMPH,WindSpeedAvgMPH,GustSpeedMaxMPH,PrecipitationSumIn
2013-2-1,46,37,29,34,27,22,80,69,52,30.09,29.87,10,2,10,0.00
2013-2-2,50,36,24,31,24,17,79,63,39,30.17,30.04,13,3,13,0.00
2013-2-3,52,37,29,29,23,20,70,57,29,30.04,29.79,11,3,11,0.00
2013-2-4,52,40,30,28,24,21,70,55,34,29.81,29.68,16,3,16,0.00
2013-2-5,51,40,31,33,27,22,71,59,47,29.83,29.64,8,2,8,0.00
2013-2-6,50,38,28,28,21,16,74,53,30,29.96,29.65,11,2,11,0.00
2013-2-7,45,32,22,26,21,15,79,63,43,29.98,29.79,5,1,5,0.00
2013-2-8,45,33,25,26,21,17,75,63,42,29.84,29.75,5,1,5,0.00
2013-2-9,42,32,20,29,22,14,85,69,51,29.80,29.67,7,1,7,0.00
2013-2-10,32,27,16,26,20,10,87,76,60,30.02,29.80,10,2,10,0.00
2013-2-11,34,21,9,20,12,4,81,68,51,30.00,29.82,12,4,12,0.00
2013-2-12,44,29,19,24,16,9,66,57,45,29.95,29.77,12,4,12,0.00
2013-2-13,49,35,28,33,23,15,86,63,39,30.02,29.75,17,4,17,0.00
2013-2-14,36,30,26,24,19,17,83,66,46,30.20,30.02,13,3,13,0.00
2013-2-15,44,32,24,31,23,19,84,72,52,30.23,30.01,10,2,10,0.00
2013-2-16,52,37,27,29,23,18,72,58,39,30.02,29.63,12,4,12,0.00
2013-2-17,45,36,30,28,23,19,72,59,35,29.86,29.55,13,4,13,0.00
2013-2-18,40,29,21,24,19,13,81,67,52,30.00,29.86,9,1,9,0.00
2013-2-19,32,21,13,20,13,7,92,72,59,29.91,29.67,6,1,6,0.00
2013-2-20,32,24,16,21,16,11,99,70,55,29.80,29.69,6,1,6,0.00
2013-2-21,41,30,21,28,20,14,86,70,47,29.85,29.76,5,1,5,0.00
2013-2-22,43,38,35,15,8,-13,37,28,9,29.67,29.61,11,3,11,0.00
2013-2-24,70,70,64,50,46,44,56,43,39,29.92,29.90,5,2,5,0.00
2013-2-25,72,65,37,46,38,17,51,38,27,29.90,29.67,12,4,12,0.00
2013-2-26,46,37,28,21,17,15,62,45,31,30.10,29.78,14,3,14,0.00
2013-2-27,48,33,23,23,17,14,72,54,30,30.11,30.01,10,2,10,0.00
2013-2-28,50,38,28,24,18,14,58,45,28,30.14,30.02,15,3,15,0.00